createdAt,value
2023-03-17T00:01:10.440Z,59.25
2023-03-17T00:03:46.575Z,68.37
2023-03-17T00:06:28.005Z,70.37
2023-03-17T00:09:01.646Z,73.80
2023-03-17T00:11:34.978Z,74.30
2023-03-17T00:14:08.704Z,64.70
2023-03-17T00:16:45.553Z,65.12
2023-03-17T00:19:34.161Z,58.80
2023-03-17T00:22:15.554Z,60.20
2023-03-17T00:24:48.262Z,77.50
2023-03-17T00:27:21.295Z,66.87
2023-03-17T00:29:54.404Z,62.38
2023-03-17T00:32:27.787Z,82.22
2023-03-17T00:35:00.801Z,72.40
2023-03-17T00:37:34.276Z,64.20
2023-03-17T00:45:16.988Z,64.92
2023-03-17T00:47:52.332Z,70.67
2023-03-17T00:50:28.882Z,77.47
2023-03-17T00:53:02.692Z,70.20
2023-03-17T00:55:35.861Z,61.00
2023-03-17T00:58:19.600Z,66.02
2023-03-17T01:00:55.532Z,81.92
2023-03-17T01:03:29.839Z,79.47
2023-03-17T01:06:05.154Z,80.95
2023-03-17T01:08:39.263Z,68.67
2023-03-17T01:11:19.438Z,71.60
2023-03-17T01:13:54.106Z,74.00
2023-03-17T01:16:27.262Z,87.75
2023-03-17T01:19:00.328Z,78.25
2023-03-17T01:21:33.869Z,75.67
2023-03-17T01:24:08.469Z,82.42
2023-03-17T01:26:41.810Z,79.45
2023-03-17T01:29:15.048Z,84.28
2023-03-17T01:31:47.861Z,66.72
2023-03-17T01:34:22.338Z,67.65
2023-03-17T01:36:55.618Z,69.80
2023-03-17T01:39:28.553Z,60.92
2023-03-17T01:42:02.925Z,78.60
2023-03-17T01:47:09.307Z,62.15
2023-03-17T01:49:43.309Z,61.70
2023-03-17T01:52:18.591Z,54.53
2023-03-17T01:54:59.205Z,56.00
2023-03-17T01:57:37.455Z,77.05
2023-03-17T02:00:16.358Z,66.85
2023-03-17T02:02:54.365Z,62.33
2023-03-17T02:05:31.315Z,66.17
2023-03-17T02:08:06.084Z,67.50
2023-03-17T02:10:42.290Z,61.55
2023-03-17T02:13:17.516Z,70.85
2023-03-17T02:15:53.206Z,63.25
2023-03-17T02:18:26.169Z,74.72
2023-03-17T02:21:32.962Z,65.87
2023-03-17T02:24:12.239Z,66.00
2023-03-17T02:26:47.300Z,72.32
2023-03-17T02:29:23.935Z,74.62
2023-03-17T02:31:57.028Z,82.12
2023-03-17T02:34:29.772Z,75.45
2023-03-17T02:37:03.030Z,70.72
2023-03-17T02:39:36.670Z,73.75
2023-03-17T02:42:12.926Z,90.40
2023-03-17T02:44:47.392Z,62.85
2023-03-17T02:47:21.937Z,68.07
2023-03-17T02:49:55.027Z,64.37
2023-03-17T02:52:28.444Z,70.65
2023-03-17T02:55:01.131Z,80.27
2023-03-17T02:57:34.632Z,75.93
2023-03-17T03:00:10.098Z,69.95
2023-03-17T03:02:44.167Z,72.03
2023-03-17T03:05:17.793Z,75.83
2023-03-17T03:07:51.832Z,89.80
2023-03-17T03:10:24.718Z,71.95
2023-03-17T03:12:57.427Z,61.40
2023-03-17T03:15:30.274Z,87.30
2023-03-17T03:18:02.968Z,69.03
2023-03-17T03:20:36.597Z,68.42
2023-03-17T03:23:09.423Z,70.40
2023-03-17T03:25:42.966Z,76.90
2023-03-17T03:28:16.529Z,80.83
2023-03-17T03:30:49.567Z,82.50
2023-03-17T03:33:23.413Z,78.57
2023-03-17T03:35:56.471Z,68.00
2023-03-17T03:38:30.972Z,70.52
2023-03-17T03:41:04.078Z,79.85
2023-03-17T03:43:38.182Z,66.53
2023-03-17T03:46:11.739Z,75.93
2023-03-17T03:48:44.693Z,78.92
2023-03-17T03:51:18.434Z,82.47
2023-03-17T03:53:51.320Z,59.90
2023-03-17T03:56:24.819Z,78.95
2023-03-17T03:58:58.208Z,77.37
2023-03-17T04:01:31.735Z,75.92
2023-03-17T04:04:04.736Z,84.95
2023-03-17T04:06:37.660Z,95.62
2023-03-17T04:09:10.428Z,71.40
2023-03-17T04:11:44.506Z,86.22
2023-03-17T04:14:18.916Z,81.70
2023-03-17T04:16:53.014Z,82.40
2023-03-17T04:19:25.923Z,83.17
2023-03-17T04:21:58.935Z,87.92
2023-03-17T04:24:31.809Z,90.45
2023-03-17T04:27:06.181Z,69.95
2023-03-17T04:29:39.607Z,84.62
2023-03-17T04:32:15.183Z,81.87
2023-03-17T04:34:49.187Z,93.37
2023-03-17T04:37:22.893Z,93.25
2023-03-17T04:39:56.559Z,99.30
2023-03-17T04:42:29.386Z,95.72
2023-03-17T04:45:02.114Z,99.40
2023-03-17T04:47:36.077Z,92.50
2023-03-17T04:50:11.148Z,72.05
2023-03-17T04:52:44.610Z,102.05
2023-03-17T04:55:21.259Z,100.20
2023-03-17T04:57:53.937Z,83.85
2023-03-17T05:00:26.825Z,109.95
2023-03-17T05:02:59.598Z,93.55
2023-03-17T05:05:34.848Z,110.08
2023-03-17T05:08:08.135Z,109.78
2023-03-17T05:10:41.041Z,110.12
2023-03-17T05:13:14.383Z,123.02
2023-03-17T05:15:53.108Z,96.80
2023-03-17T05:18:27.894Z,96.57
2023-03-17T05:21:01.793Z,109.07
2023-03-17T05:23:35.791Z,100.78
2023-03-17T05:26:09.196Z,82.60
2023-03-17T05:28:42.322Z,108.15
2023-03-17T05:31:15.242Z,100.90
2023-03-17T05:33:49.825Z,111.65
2023-03-17T05:36:22.849Z,114.32
2023-03-17T05:38:56.729Z,98.90
2023-03-17T05:41:30.264Z,107.12
2023-03-17T05:44:03.811Z,86.32
2023-03-17T05:46:37.546Z,114.62
2023-03-17T05:49:11.095Z,101.38
2023-03-17T05:51:43.884Z,92.25
2023-03-17T05:54:16.836Z,103.47
2023-03-17T05:56:51.276Z,101.67
2023-03-17T05:59:24.120Z,120.40
2023-03-17T06:01:57.528Z,124.35
2023-03-17T06:04:30.475Z,106.40
2023-03-17T06:07:03.217Z,115.60
2023-03-17T06:09:36.671Z,116.47
2023-03-17T06:12:10.145Z,119.82
2023-03-17T06:14:42.880Z,101.42
2023-03-17T06:17:16.359Z,97.70
2023-03-17T06:22:22.304Z,108.60
2023-03-17T06:24:56.177Z,112.77
2023-03-17T06:27:29.408Z,106.27
2023-03-17T06:30:02.599Z,125.50
2023-03-17T06:32:36.624Z,107.12
2023-03-17T06:35:10.243Z,122.25
2023-03-17T06:37:43.994Z,83.00
2023-03-17T06:40:17.615Z,123.33
2023-03-17T06:42:50.665Z,86.20
2023-03-17T06:45:23.433Z,113.77
2023-03-17T06:47:58.552Z,82.37
2023-03-17T06:50:31.498Z,102.15
2023-03-17T06:53:05.117Z,86.75
2023-03-17T06:55:37.997Z,66.37
2023-03-17T06:58:13.492Z,95.12
2023-03-17T07:00:49.188Z,99.55
2023-03-17T07:03:24.325Z,95.67
2023-03-17T07:05:57.918Z,81.15
2023-03-17T07:08:31.288Z,80.95
2023-03-17T07:11:04.928Z,71.77
2023-03-17T07:13:40.060Z,86.15
2023-03-17T07:16:16.524Z,91.35
2023-03-17T07:18:50.826Z,110.92
2023-03-17T07:23:55.740Z,101.50
2023-03-17T07:26:28.583Z,90.28
2023-03-17T07:29:02.097Z,86.47
2023-03-17T07:31:37.319Z,78.12
2023-03-17T07:34:11.569Z,64.75
2023-03-17T07:36:45.222Z,54.03
2023-03-17T07:39:18.210Z,60.70
2023-03-17T07:41:52.785Z,63.73
2023-03-17T07:44:27.623Z,82.40
2023-03-17T07:47:00.745Z,80.62
2023-03-17T07:49:41.319Z,79.03
2023-03-17T07:52:10.673Z,58.73
2023-03-17T07:54:45.085Z,56.00
2023-03-17T07:57:18.804Z,56.53
2023-03-17T07:59:51.898Z,61.90
2023-03-17T08:02:25.435Z,83.65
2023-03-17T08:04:58.284Z,60.33
2023-03-17T08:07:32.665Z,46.88
2023-03-17T08:10:09.013Z,43.00
2023-03-17T08:12:43.017Z,68.55
2023-03-17T08:15:16.853Z,44.27
2023-03-17T08:17:50.096Z,59.00
2023-03-17T08:20:23.452Z,43.60
2023-03-17T08:22:58.085Z,69.92
2023-03-17T08:25:32.401Z,61.20
2023-03-17T08:28:05.611Z,46.53
2023-03-17T08:30:39.489Z,53.60
2023-03-17T08:33:13.614Z,65.05
2023-03-17T08:35:47.306Z,53.13
2023-03-17T08:38:21.280Z,35.70
2023-03-17T08:40:54.192Z,52.83
2023-03-17T08:43:29.005Z,56.77
2023-03-17T08:46:27.520Z,56.08
2023-03-17T08:49:02.108Z,57.62
2023-03-17T08:51:38.281Z,75.78
2023-03-17T08:54:11.877Z,57.17
2023-03-17T08:56:47.009Z,58.23
2023-03-17T08:59:19.932Z,54.18
2023-03-17T09:01:53.066Z,66.17
2023-03-17T09:04:26.972Z,46.13
2023-03-17T09:07:03.974Z,64.10
2023-03-17T09:09:36.927Z,64.62
2023-03-17T09:12:11.708Z,55.50
2023-03-17T09:14:46.312Z,55.65
2023-03-17T09:17:20.585Z,58.35
2023-03-17T09:19:54.125Z,60.65
2023-03-17T09:22:27.343Z,47.35
2023-03-17T09:25:01.035Z,24.63
2023-03-17T09:30:10.652Z,32.40
2023-03-17T09:32:45.215Z,45.38
2023-03-17T09:35:19.706Z,47.67
2023-03-17T09:37:52.970Z,54.65
2023-03-17T09:40:37.551Z,48.78
2023-03-17T09:45:51.929Z,49.77
2023-03-17T09:48:35.747Z,47.53
2023-03-17T09:51:14.576Z,32.70
2023-03-17T09:54:08.065Z,37.93
2023-03-17T09:56:44.704Z,35.30
2023-03-17T09:59:37.174Z,40.15
2023-03-17T10:02:33.110Z,36.70
2023-03-17T10:05:28.050Z,35.15
2023-03-17T10:08:30.081Z,29.48
2023-03-17T10:11:36.796Z,21.57
2023-03-17T10:14:35.454Z,27.98
2023-03-17T10:17:23.553Z,39.98
2023-03-17T10:20:29.098Z,38.20
2023-03-17T10:23:06.404Z,44.40
2023-03-17T10:25:39.790Z,33.45
2023-03-17T10:28:29.828Z,38.08
2023-03-17T10:31:24.481Z,39.40
2023-03-17T10:36:38.498Z,55.70
2023-03-17T10:39:16.465Z,49.53
2023-03-17T10:41:56.511Z,54.63
2023-03-17T10:44:39.660Z,39.50
2023-03-17T10:47:26.037Z,47.27
2023-03-17T10:50:05.783Z,35.73
2023-03-17T10:52:41.807Z,25.95
2023-03-17T10:55:21.056Z,44.75
2023-03-17T10:58:05.186Z,45.05
2023-03-17T11:00:40.091Z,44.05
2023-03-17T11:06:01.372Z,46.70
2023-03-17T11:08:44.940Z,54.60
2023-03-17T11:11:34.987Z,45.73
2023-03-17T11:14:14.604Z,60.73
2023-03-17T11:16:57.256Z,45.90
2023-03-17T11:19:46.770Z,57.62
2023-03-17T11:22:33.390Z,35.58
2023-03-17T11:25:23.737Z,37.73
2023-03-17T11:28:17.272Z,44.25
2023-03-17T11:31:09.914Z,42.88
2023-03-17T11:34:00.319Z,41.95
2023-03-17T11:37:11.054Z,42.17
2023-03-17T11:39:57.889Z,48.58
2023-03-17T11:42:57.324Z,44.33
2023-03-17T11:45:53.167Z,51.68
2023-03-17T11:48:46.214Z,49.03
2023-03-17T11:51:38.386Z,47.80
2023-03-17T11:54:42.831Z,47.93
2023-03-17T11:57:36.675Z,53.58
2023-03-17T12:00:35.028Z,46.75
2023-03-17T12:03:40.420Z,43.70
2023-03-17T12:06:21.179Z,38.92
2023-03-17T12:09:17.640Z,32.08
2023-03-17T12:11:51.787Z,37.23
2023-03-17T12:14:38.668Z,50.08
2023-03-17T12:17:58.935Z,45.33
2023-03-17T12:21:02.412Z,54.42
2023-03-17T12:24:02.183Z,46.48
2023-03-17T12:26:57.837Z,52.23
2023-03-17T12:29:49.213Z,50.70
2023-03-17T12:32:31.489Z,51.80
2023-03-17T12:35:35.347Z,42.20
2023-03-17T12:38:22.102Z,39.50
2023-03-17T12:41:22.907Z,47.35
2023-03-17T12:44:10.558Z,43.08
2023-03-17T12:46:54.435Z,44.85
2023-03-17T12:49:50.668Z,33.28
2023-03-17T12:52:31.815Z,26.87
2023-03-17T12:55:08.570Z,49.60
2023-03-17T12:57:47.798Z,30.95
2023-03-17T13:00:33.523Z,30.48
2023-03-17T13:03:25.193Z,25.85
2023-03-17T13:06:05.106Z,28.87
2023-03-17T13:08:45.058Z,29.50
2023-03-17T13:11:28.464Z,26.50
2023-03-17T13:14:42.254Z,30.95
2023-03-17T13:17:30.324Z,42.60
2023-03-17T13:20:17.501Z,32.30
2023-03-17T13:23:13.960Z,40.78
2023-03-17T13:25:55.089Z,34.98
2023-03-17T13:28:44.291Z,40.48
2023-03-17T13:31:36.585Z,44.48
2023-03-17T13:34:18.162Z,46.18
2023-03-17T13:37:04.812Z,40.75
2023-03-17T13:39:51.377Z,50.40
2023-03-17T13:42:29.256Z,40.08
2023-03-17T13:45:28.103Z,78.83
2023-03-17T13:48:33.311Z,62.78
2023-03-17T13:51:25.426Z,49.80
2023-03-17T13:54:09.181Z,63.83
2023-03-17T13:56:49.259Z,55.45
2023-03-17T13:59:39.485Z,55.28
2023-03-17T14:02:22.011Z,64.77
2023-03-17T14:05:07.221Z,83.25
2023-03-17T14:08:03.976Z,87.95
2023-03-17T14:10:37.676Z,63.68
2023-03-17T14:13:26.726Z,68.45
2023-03-17T14:16:26.207Z,86.08
2023-03-17T14:19:29.100Z,65.10
2023-03-17T14:22:09.623Z,83.50
2023-03-17T14:24:42.470Z,102.25
2023-03-17T14:27:15.599Z,88.72
2023-03-17T14:29:48.470Z,84.30
2023-03-17T14:32:24.561Z,82.50
2023-03-17T14:35:00.244Z,72.15
2023-03-17T14:37:33.965Z,82.08
2023-03-17T14:40:23.640Z,89.60
2023-03-17T14:42:56.681Z,76.20
2023-03-17T14:45:52.103Z,99.07
2023-03-17T14:48:34.348Z,80.67
2023-03-17T14:51:39.417Z,91.15
2023-03-17T14:54:24.575Z,95.38
2023-03-17T14:57:09.620Z,89.35
2023-03-17T14:59:45.166Z,96.22
2023-03-17T15:02:34.576Z,97.70
2023-03-17T15:05:21.162Z,95.95
2023-03-17T15:07:54.662Z,94.47
2023-03-17T15:10:31.440Z,95.17
2023-03-17T15:13:07.403Z,78.05
2023-03-17T15:15:42.795Z,93.40
2023-03-17T15:18:18.052Z,82.15
2023-03-17T15:20:52.481Z,75.22
2023-03-17T15:23:27.298Z,105.45
2023-03-17T15:26:00.296Z,84.83
2023-03-17T15:28:33.726Z,116.05
2023-03-17T15:31:15.957Z,106.07
2023-03-17T15:33:49.429Z,121.90
2023-03-17T15:36:32.360Z,100.72
2023-03-17T15:38:59.650Z,112.50
2023-03-17T15:41:32.752Z,132.10
2023-03-17T15:44:06.334Z,134.30
2023-03-17T15:46:39.644Z,113.30
2023-03-17T15:49:14.712Z,118.57
2023-03-17T15:51:48.990Z,124.25
2023-03-17T15:54:23.691Z,87.40
2023-03-17T15:56:57.303Z,99.55
2023-03-17T15:59:30.897Z,113.68
2023-03-17T16:02:03.934Z,111.25
2023-03-17T16:04:37.279Z,129.63
2023-03-17T16:07:13.501Z,127.32
2023-03-17T16:09:47.262Z,109.97
2023-03-17T16:12:20.587Z,126.02
2023-03-17T16:17:30.179Z,128.62
2023-03-17T16:20:04.691Z,123.60
2023-03-17T16:22:43.283Z,123.00
2023-03-17T16:25:30.351Z,139.52
2023-03-17T16:28:17.539Z,150.72
2023-03-17T16:30:52.351Z,126.12
2023-03-17T16:33:31.733Z,115.57
2023-03-17T16:36:04.638Z,133.50
2023-03-17T16:38:37.804Z,143.32
2023-03-17T16:41:21.356Z,158.18
2023-03-17T16:44:00.822Z,114.82
2023-03-17T16:46:36.275Z,116.47
2023-03-17T16:49:09.749Z,124.18
2023-03-17T16:51:43.411Z,111.80
2023-03-17T16:54:16.777Z,117.80
2023-03-17T16:56:49.826Z,113.75
2023-03-17T16:59:26.079Z,149.25
2023-03-17T17:01:59.695Z,162.40
2023-03-17T17:04:34.211Z,147.53
2023-03-17T17:07:07.384Z,156.60
2023-03-17T17:09:41.209Z,157.60
2023-03-17T17:12:15.785Z,120.35
2023-03-17T17:14:49.473Z,95.17
2023-03-17T17:17:22.236Z,84.47
2023-03-17T17:19:55.744Z,105.10
2023-03-17T17:22:30.490Z,95.07
2023-03-17T17:25:05.041Z,105.15
2023-03-17T17:27:41.978Z,95.32
2023-03-17T17:30:19.361Z,82.20
2023-03-17T17:32:53.473Z,87.88
2023-03-17T17:35:32.390Z,60.03
2023-03-17T17:38:04.782Z,71.35
2023-03-17T17:40:38.400Z,55.30
2023-03-17T17:43:12.223Z,69.80
2023-03-17T17:45:48.128Z,59.80
2023-03-17T17:48:25.503Z,61.45
2023-03-17T17:50:59.250Z,65.10
2023-03-17T17:53:31.982Z,67.58
2023-03-17T17:56:05.370Z,52.95
2023-03-17T17:58:38.165Z,55.77
2023-03-17T18:01:13.276Z,53.98
2023-03-17T18:03:47.015Z,54.48
2023-03-17T18:06:19.916Z,52.30
2023-03-17T18:08:53.172Z,50.73
2023-03-17T18:11:27.519Z,43.65
2023-03-17T18:14:00.589Z,44.48
2023-03-17T18:16:34.032Z,34.93
2023-03-17T18:19:10.291Z,51.53
2023-03-17T18:21:43.241Z,49.03
2023-03-17T18:24:16.579Z,47.35
2023-03-17T18:26:49.897Z,50.78
2023-03-17T18:29:22.772Z,49.95
2023-03-17T18:31:57.263Z,49.35
2023-03-17T18:34:35.354Z,49.30
2023-03-17T18:37:09.313Z,65.78
2023-03-17T18:39:43.559Z,59.05
2023-03-17T18:42:16.496Z,65.22
2023-03-17T18:44:50.012Z,66.02
2023-03-17T18:47:23.572Z,57.88
2023-03-17T18:49:58.452Z,59.30
2023-03-17T18:52:37.685Z,94.87
2023-03-17T18:55:12.332Z,105.12
2023-03-17T18:57:46.692Z,135.55
2023-03-17T19:00:20.241Z,196.57
2023-03-17T19:02:54.357Z,144.85
2023-03-17T19:05:27.215Z,94.67
2023-03-17T19:08:00.794Z,102.75
2023-03-17T19:10:34.882Z,74.75
2023-03-17T19:13:10.211Z,96.37
2023-03-17T19:15:44.467Z,111.42
2023-03-17T19:18:17.880Z,96.67
2023-03-17T19:20:51.416Z,100.20
2023-03-17T19:23:25.701Z,89.77
2023-03-17T19:25:59.322Z,74.15
2023-03-17T19:28:32.273Z,84.90
2023-03-17T19:31:05.552Z,73.20
2023-03-17T19:33:39.384Z,75.08
2023-03-17T19:38:47.483Z,63.65
2023-03-17T19:41:20.975Z,76.90
2023-03-17T19:43:54.141Z,79.75
2023-03-17T19:46:27.564Z,88.07
2023-03-17T19:49:01.603Z,79.27
2023-03-17T19:51:34.907Z,82.25
2023-03-17T19:54:10.100Z,101.53
2023-03-17T19:56:43.132Z,86.90
2023-03-17T19:59:17.012Z,93.23
2023-03-17T20:01:50.013Z,93.50
2023-03-17T20:04:23.447Z,67.47
2023-03-17T20:06:58.162Z,81.45
2023-03-17T20:09:32.175Z,72.17
2023-03-17T20:12:05.447Z,71.45
2023-03-17T20:14:38.356Z,59.70
2023-03-17T20:17:12.327Z,88.22
2023-03-17T20:19:46.528Z,106.75
2023-03-17T20:22:19.637Z,82.08
2023-03-17T20:24:52.615Z,95.35
2023-03-17T20:27:26.082Z,61.42
2023-03-17T20:29:59.357Z,56.70
2023-03-17T20:32:32.834Z,56.88
2023-03-17T20:35:07.909Z,54.70
2023-03-17T20:37:40.874Z,56.63
2023-03-17T20:40:15.480Z,45.80
2023-03-17T20:42:49.743Z,45.63
2023-03-17T20:45:23.485Z,44.42
2023-03-17T20:47:57.482Z,40.23
2023-03-17T20:50:31.401Z,44.13
2023-03-17T20:53:05.711Z,38.58
2023-03-17T20:55:38.549Z,35.63
2023-03-17T20:58:13.950Z,38.10
2023-03-17T21:00:48.741Z,35.95
2023-03-17T21:03:21.842Z,34.70
2023-03-17T21:05:55.681Z,46.53
2023-03-17T21:08:29.016Z,45.83
2023-03-17T21:11:03.186Z,33.18
2023-03-17T21:13:37.629Z,37.67
2023-03-17T21:16:15.548Z,34.50
2023-03-17T21:18:50.022Z,34.15
2023-03-17T21:21:23.590Z,36.50
2023-03-17T21:23:57.336Z,32.98
2023-03-17T21:26:30.506Z,32.23
2023-03-17T21:29:04.182Z,34.70
2023-03-17T21:31:38.808Z,27.20
2023-03-17T21:34:12.768Z,28.50
2023-03-17T21:39:21.170Z,28.07
2023-03-17T21:41:54.876Z,27.58
2023-03-17T21:44:28.415Z,30.05
2023-03-17T21:47:03.342Z,29.50
2023-03-17T21:49:36.078Z,29.40
2023-03-17T21:52:09.945Z,31.00
2023-03-17T21:54:43.616Z,28.12
2023-03-17T21:57:18.177Z,24.50
2023-03-17T21:59:51.302Z,24.70
2023-03-17T22:02:24.856Z,23.35
2023-03-17T22:04:58.013Z,19.35
2023-03-17T22:07:31.290Z,23.22
2023-03-17T22:10:06.530Z,21.23
2023-03-17T22:12:41.084Z,27.48
2023-03-17T22:15:14.727Z,25.82
2023-03-17T22:17:48.187Z,24.25
2023-03-17T22:20:21.716Z,27.52
2023-03-17T22:22:54.906Z,30.07
2023-03-17T22:25:27.879Z,31.87
2023-03-17T22:28:00.639Z,31.20
2023-03-17T22:30:37.485Z,37.78
2023-03-17T22:33:11.154Z,38.45
2023-03-17T22:35:44.887Z,44.90
2023-03-17T22:38:18.464Z,33.78
2023-03-17T22:41:04.613Z,32.95
2023-03-17T22:43:40.343Z,33.65
2023-03-17T22:46:14.090Z,30.95
2023-03-17T22:48:47.734Z,44.33
2023-03-17T22:51:24.338Z,48.30
2023-03-17T22:53:59.371Z,50.38
2023-03-17T22:56:33.254Z,34.60
2023-03-17T22:59:06.276Z,33.18
2023-03-17T23:01:39.658Z,27.13
2023-03-17T23:04:13.205Z,39.80
2023-03-17T23:06:47.699Z,34.45
2023-03-17T23:09:21.556Z,30.65
2023-03-17T23:11:54.882Z,43.00
2023-03-17T23:14:28.797Z,38.45
2023-03-17T23:17:01.713Z,32.75
2023-03-17T23:19:35.323Z,33.73
2023-03-17T23:22:08.900Z,28.60
2023-03-17T23:24:41.795Z,36.70
2023-03-17T23:27:16.081Z,37.60
2023-03-17T23:29:49.340Z,27.32
2023-03-17T23:32:23.045Z,21.67
2023-03-17T23:34:55.874Z,27.95
2023-03-17T23:37:28.777Z,30.43
2023-03-17T23:40:02.247Z,30.48
2023-03-17T23:42:36.264Z,25.30
2023-03-17T23:45:10.866Z,30.88
2023-03-17T23:47:43.949Z,35.43
2023-03-17T23:50:17.834Z,40.98
2023-03-17T23:52:52.032Z,34.23
2023-03-17T23:55:24.784Z,32.63
2023-03-17T23:57:57.458Z,32.08
